UPSVAC Airport Information Service

Quito Mariscal Sucre International Airport

ICAO: SEQM Country: Ecuador
Latitude: -0.1133 Longitude: -78.3586
Latest Arrival : UPS375 (KMIA-SEQM) Latest Departure : UPSJUMP (SEQM-KDFW)


WX CaptureLIVE
Data provided by noaa.gov | Fetched at 10:51:17

METAR : SEQM 262000Z 01007KT 9999 VCSH BKN026 BKN070 19/13 Q1021 NOSIG RMK A3016

TAF : SEQM 250430Z 2506/2606 VRB03KT 9999 SCT005 BKN030 BECMG 2512/2514 SCT030 SCT100 BECMG 2516/2520 36012KT BKN030 BKN100 TEMPO 2520/2522 SHRA BECMG 2600/2602 03005KT FEW010 SCT030 TX22/2519Z TN12/2511Z


Runway Data for SEQM
Data provided by openaviationdata.com

Runway ID Mag Var Hdg Length Elevation Surface ILS Freq ILS Id ILS Slope

Quito Mariscal Sucre International Airport, Ecuador
Use only for reference purposes



Not for navigational purposes.